Time;durP1;ratioP1;P1;durP2;ratioP2;P2;SDS_P1;SDS_P2;PMS_P1;PMS_P2;Temp;Humidity;BMP_temperature;BMP_pressure;BME280_temperature;BME280_humidity;BME280_pressure;Samples;Min_cycle;Max_cycle;Signal;HPM_P1;HPM_P2
2023/11/23 00:02:12;;;;;;;20.15;12.27;;;;;;;;;;5126553;27;20015;-75
2023/11/23 00:04:58;;;;;;;23.77;13.75;;;;;;;;;;5122017;27;20451;-76
2023/11/23 00:07:43;;;;;;;21.20;13.00;;;;;;;;;;5138255;27;20034;-75
2023/11/23 00:10:29;;;;;;;24.65;13.45;;;;;;;;;;5138497;27;20019;-74
2023/11/23 00:13:15;;;;;;;21.35;12.60;;;;;;;;;;5124209;27;20026;-73
2023/11/23 00:16:00;;;;;;;20.60;12.57;;;;;;;;;;5137949;27;20113;-75
2023/11/23 00:18:46;;;;;;;22.67;13.13;;;;;;;;;;5138254;27;20383;-76
2023/11/23 00:21:32;;;;;;;23.75;13.95;;;;;;;;;;5137683;27;20023;-73
2023/11/23 00:24:17;;;;;;;23.33;14.27;;;;;;;;;;5124224;27;20093;-75
2023/11/23 00:27:03;;;;;;;25.48;15.00;;;;;;;;;;5122878;27;20019;-75
2023/11/23 00:29:48;;;;;;;26.48;15.40;;;;;;;;;;5137959;27;20020;-74
2023/11/23 00:32:34;;;;;;;26.58;14.95;;;;;;;;;;5138459;27;20343;-75
2023/11/23 00:35:20;;;;;;;24.27;14.93;;;;;;;;;;5138951;27;20447;-75
2023/11/23 00:38:08;;;;;;;25.95;15.23;;;;;;;;;;5139157;27;20113;-75
2023/11/23 00:40:54;;;;;;;29.63;16.33;;;;;;;;;;5137526;27;20518;-75
2023/11/23 00:43:39;;;;;;;28.27;16.08;;;;;;;;;;5138294;27;20026;-74
2023/11/23 00:46:25;;;;;;;29.58;16.35;;;;;;;;;;5139156;27;20038;-75
2023/11/23 00:49:10;;;;;;;28.75;15.95;;;;;;;;;;5138305;27;20015;-75
2023/11/23 00:51:56;;;;;;;28.40;16.13;;;;;;;;;;5123219;27;20124;-74
2023/11/23 00:54:42;;;;;;;28.17;16.45;;;;;;;;;;5122419;27;20043;-74
2023/11/23 00:57:27;;;;;;;28.33;15.18;;;;;;;;;;5122949;27;20055;-74
2023/11/23 01:00:16;;;;;;;29.33;16.52;;;;;;;;;;5121206;27;20026;-75
2023/11/23 01:03:02;;;;;;;30.15;16.58;;;;;;;;;;5122890;27;20026;-75
2023/11/23 01:05:47;;;;;;;26.35;15.65;;;;;;;;;;5138925;27;20019;-75
2023/11/23 01:08:33;;;;;;;27.70;15.98;;;;;;;;;;5137651;27;20317;-76
2023/11/23 01:11:18;;;;;;;29.45;16.13;;;;;;;;;;5138866;27;20027;-75
2023/11/23 01:14:04;;;;;;;28.73;16.30;;;;;;;;;;5122245;27;20078;-76
2023/11/23 01:16:50;;;;;;;26.90;15.20;;;;;;;;;;5136870;27;20019;-76
2023/11/23 01:19:35;;;;;;;30.08;17.10;;;;;;;;;;5137136;27;20015;-77
2023/11/23 01:22:21;;;;;;;28.15;15.75;;;;;;;;;;5137525;27;20400;-77
2023/11/23 01:25:08;;;;;;;29.17;16.17;;;;;;;;;;5137120;27;20470;-76
2023/11/23 01:27:55;;;;;;;28.17;15.75;;;;;;;;;;5137204;27;20019;-76
2023/11/23 01:30:40;;;;;;;34.83;16.98;;;;;;;;;;5136473;27;20062;-76
2023/11/23 01:33:26;;;;;;;25.48;15.32;;;;;;;;;;5137253;27;20031;-76
2023/11/23 01:36:12;;;;;;;27.65;15.60;;;;;;;;;;5137424;27;20023;-76
2023/11/23 01:38:57;;;;;;;27.08;16.45;;;;;;;;;;5137099;27;20041;-74
2023/11/23 01:41:43;;;;;;;26.60;15.60;;;;;;;;;;5136910;27;20015;-74
2023/11/23 01:44:28;;;;;;;27.77;16.15;;;;;;;;;;5137286;27;20355;-74
2023/11/23 01:47:15;;;;;;;27.13;15.93;;;;;;;;;;5135284;27;20023;-74
2023/11/23 01:50:03;;;;;;;26.90;15.90;;;;;;;;;;5135734;27;20118;-74
2023/11/23 01:52:48;;;;;;;27.02;16.00;;;;;;;;;;5136516;27;20035;-72
2023/11/23 01:55:34;;;;;;;26.25;15.30;;;;;;;;;;5137103;27;20435;-73
2023/11/23 01:58:20;;;;;;;27.73;15.27;;;;;;;;;;5136516;27;20512;-73
2023/11/23 02:01:06;;;;;;;29.95;15.88;;;;;;;;;;5136041;27;20340;-73
2023/11/23 02:03:52;;;;;;;30.80;16.20;;;;;;;;;;5135768;27;20039;-74
2023/11/23 02:06:37;;;;;;;29.13;15.75;;;;;;;;;;5136509;27;20026;-73
2023/11/23 02:09:23;;;;;;;28.55;15.68;;;;;;;;;;5135910;27;20031;-73
2023/11/23 02:12:09;;;;;;;28.15;15.98;;;;;;;;;;5136000;27;20027;-72
2023/11/23 02:14:56;;;;;;;29.67;16.20;;;;;;;;;;5137232;27;20037;-73
2023/11/23 02:17:42;;;;;;;28.70;15.90;;;;;;;;;;5135798;27;20038;-73
2023/11/23 02:20:27;;;;;;;27.27;15.98;;;;;;;;;;5135999;27;20019;-74
2023/11/23 02:23:13;;;;;;;28.40;15.70;;;;;;;;;;5137157;27;20080;-73
2023/11/23 02:25:59;;;;;;;29.73;15.88;;;;;;;;;;5136290;27;20011;-73
2023/11/23 02:28:44;;;;;;;29.55;16.58;;;;;;;;;;5137002;27;20047;-73
2023/11/23 02:31:32;;;;;;;28.25;14.57;;;;;;;;;;5134864;27;20019;-73
2023/11/23 02:34:18;;;;;;;27.70;14.57;;;;;;;;;;5137340;27;20019;-78
2023/11/23 02:37:04;;;;;;;28.10;15.05;;;;;;;;;;5134430;27;20031;-79
2023/11/23 02:39:50;;;;;;;26.55;14.27;;;;;;;;;;5135834;27;20022;-79
2023/11/23 02:42:36;;;;;;;25.67;14.98;;;;;;;;;;5136084;27;20102;-79
2023/11/23 02:45:22;;;;;;;25.55;15.02;;;;;;;;;;5121504;27;20107;-78
2023/11/23 02:48:08;;;;;;;25.95;14.93;;;;;;;;;;5122095;27;20090;-78
2023/11/23 02:50:54;;;;;;;26.63;14.93;;;;;;;;;;5134627;27;20131;-78
2023/11/23 02:53:43;;;;;;;28.15;15.52;;;;;;;;;;5135310;27;20073;-78
2023/11/23 02:56:28;;;;;;;26.00;15.13;;;;;;;;;;5122124;27;20066;-78
2023/11/23 02:59:14;;;;;;;27.92;15.60;;;;;;;;;;5121367;27;20061;-79
2023/11/23 03:02:00;;;;;;;30.05;15.73;;;;;;;;;;5135119;27;20015;-78
2023/11/23 03:04:45;;;;;;;27.42;16.65;;;;;;;;;;5121573;27;20405;-79
2023/11/23 03:07:31;;;;;;;30.50;16.08;;;;;;;;;;5121842;27;20102;-79
2023/11/23 03:10:16;;;;;;;29.70;16.35;;;;;;;;;;5119639;27;20037;-77
2023/11/23 03:13:02;;;;;;;31.63;15.52;;;;;;;;;;5135502;27;20027;-79
2023/11/23 03:15:51;;;;;;;29.75;15.98;;;;;;;;;;5135207;27;20077;-79
2023/11/23 03:18:37;;;;;;;26.05;15.02;;;;;;;;;;5119868;27;20432;-78
2023/11/23 03:21:25;;;;;;;31.02;15.95;;;;;;;;;;5135025;27;20020;-78
2023/11/23 03:24:11;;;;;;;27.33;14.73;;;;;;;;;;5134411;27;20046;-78
2023/11/23 03:26:56;;;;;;;27.13;15.38;;;;;;;;;;5135555;28;20055;-78
2023/11/23 03:29:42;;;;;;;28.60;15.35;;;;;;;;;;5133905;28;20030;-78
2023/11/23 03:32:30;;;;;;;26.25;15.10;;;;;;;;;;5135276;28;20359;-76
2023/11/23 03:35:16;;;;;;;29.52;16.27;;;;;;;;;;5135020;28;20406;-79
2023/11/23 03:38:03;;;;;;;29.02;15.10;;;;;;;;;;5121360;28;20077;-77
2023/11/23 03:40:48;;;;;;;29.42;16.23;;;;;;;;;;5134677;28;20049;-78
2023/11/23 03:43:34;;;;;;;28.88;15.75;;;;;;;;;;5134887;28;20110;-77
2023/11/23 03:46:20;;;;;;;30.02;16.73;;;;;;;;;;5134865;28;20192;-78
2023/11/23 03:49:05;;;;;;;29.63;16.55;;;;;;;;;;5135187;28;20019;-79
2023/11/23 03:51:51;;;;;;;27.40;15.38;;;;;;;;;;5120923;28;20047;-79
2023/11/23 03:54:37;;;;;;;28.85;16.58;;;;;;;;;;5135057;28;20035;-78
2023/11/23 03:57:23;;;;;;;33.78;17.40;;;;;;;;;;5135087;28;20034;-77
2023/11/23 04:00:08;;;;;;;31.65;16.15;;;;;;;;;;5135349;28;20447;-78
2023/11/23 04:02:55;;;;;;;29.95;16.17;;;;;;;;;;5122043;27;20023;-80
2023/11/23 04:05:41;;;;;;;36.08;17.67;;;;;;;;;;5134831;28;20026;-78
2023/11/23 04:08:27;;;;;;;37.10;17.50;;;;;;;;;;5135230;28;20353;-78
2023/11/23 04:11:13;;;;;;;29.73;16.50;;;;;;;;;;5134643;28;20080;-78
2023/11/23 04:13:58;;;;;;;30.83;15.73;;;;;;;;;;5120851;28;20030;-78
2023/11/23 04:16:44;;;;;;;31.25;16.80;;;;;;;;;;5134778;28;20073;-78
2023/11/23 04:19:30;;;;;;;28.35;15.77;;;;;;;;;;5134268;28;20023;-78
2023/11/23 04:22:16;;;;;;;29.45;16.25;;;;;;;;;;5134411;28;20199;-78
2023/11/23 04:25:02;;;;;;;33.20;17.52;;;;;;;;;;5134540;28;20019;-78
2023/11/23 04:27:47;;;;;;;28.98;16.38;;;;;;;;;;5134543;28;20043;-78
2023/11/23 04:30:33;;;;;;;31.05;16.90;;;;;;;;;;5134969;28;20455;-79
2023/11/23 04:33:18;;;;;;;33.42;17.35;;;;;;;;;;5134754;28;20023;-78
2023/11/23 04:36:04;;;;;;;30.77;16.73;;;;;;;;;;5136131;27;20027;-77
2023/11/23 04:38:50;;;;;;;30.67;17.55;;;;;;;;;;5137421;27;20022;-79
2023/11/23 04:41:36;;;;;;;32.83;16.88;;;;;;;;;;5137832;27;20148;-78
2023/11/23 04:44:22;;;;;;;32.35;16.63;;;;;;;;;;5138718;27;20102;-79
2023/11/23 04:47:08;;;;;;;35.08;17.92;;;;;;;;;;5138808;27;20007;-78
2023/11/23 04:49:54;;;;;;;34.35;17.08;;;;;;;;;;5122803;27;20085;-77
2023/11/23 04:52:39;;;;;;;34.10;18.75;;;;;;;;;;5137584;27;20047;-79
2023/11/23 04:55:25;;;;;;;36.10;17.80;;;;;;;;;;5138371;27;20341;-77
2023/11/23 04:58:10;;;;;;;32.75;17.02;;;;;;;;;;5137875;27;20019;-76
2023/11/23 05:00:56;;;;;;;34.55;18.05;;;;;;;;;;5137584;27;20374;-75
2023/11/23 05:03:42;;;;;;;33.28;17.40;;;;;;;;;;5122174;27;20023;-74
2023/11/23 05:06:27;;;;;;;33.67;17.73;;;;;;;;;;5136945;27;20011;-74
2023/11/23 05:09:13;;;;;;;33.05;17.15;;;;;;;;;;5138277;27;20085;-74
2023/11/23 05:11:58;;;;;;;33.20;17.75;;;;;;;;;;5138380;27;20023;-74
2023/11/23 05:14:44;;;;;;;33.85;18.00;;;;;;;;;;5138243;27;20419;-75
2023/11/23 05:17:30;;;;;;;35.72;18.63;;;;;;;;;;5121900;27;20031;-75
2023/11/23 05:20:16;;;;;;;36.58;18.55;;;;;;;;;;5137062;27;20109;-71
2023/11/23 05:23:02;;;;;;;37.05;17.77;;;;;;;;;;5137713;27;20019;-71
2023/11/23 05:25:48;;;;;;;33.95;17.73;;;;;;;;;;5123279;27;20161;-70
2023/11/23 05:28:34;;;;;;;35.22;18.27;;;;;;;;;;5137194;27;20019;-70
2023/11/23 05:31:19;;;;;;;34.20;17.77;;;;;;;;;;5136376;27;20092;-70
2023/11/23 05:34:05;;;;;;;36.75;18.85;;;;;;;;;;5121598;27;20164;-70
2023/11/23 05:36:50;;;;;;;35.10;18.90;;;;;;;;;;5136825;27;20529;-70
2023/11/23 05:39:37;;;;;;;38.67;18.70;;;;;;;;;;5137793;27;20045;-70
2023/11/23 05:42:23;;;;;;;38.55;19.40;;;;;;;;;;5123071;27;20325;-71
2023/11/23 05:45:09;;;;;;;38.13;19.55;;;;;;;;;;5137142;27;20015;-71
2023/11/23 05:47:54;;;;;;;41.42;19.85;;;;;;;;;;5136009;27;20023;-70
2023/11/23 05:50:40;;;;;;;41.45;19.90;;;;;;;;;;5135798;27;20047;-71
2023/11/23 05:53:25;;;;;;;37.80;19.48;;;;;;;;;;5121861;27;20035;-70
2023/11/23 05:56:11;;;;;;;40.08;19.90;;;;;;;;;;5121043;27;20160;-75
2023/11/23 05:58:57;;;;;;;38.60;19.20;;;;;;;;;;5135848;27;20336;-74
2023/11/23 06:01:42;;;;;;;39.45;19.13;;;;;;;;;;5138950;27;20084;-74
2023/11/23 06:04:28;;;;;;;37.00;19.38;;;;;;;;;;5137886;27;20019;-73
2023/11/23 06:07:15;;;;;;;38.65;17.92;;;;;;;;;;5121498;27;20043;-74
2023/11/23 06:10:04;;;;;;;35.90;19.27;;;;;;;;;;5136428;27;20504;-73
2023/11/23 06:12:50;;;;;;;37.28;18.45;;;;;;;;;;5135847;27;20045;-70
2023/11/23 06:15:35;;;;;;;36.10;18.42;;;;;;;;;;5136364;27;20027;-70
2023/11/23 06:18:21;;;;;;;35.85;19.27;;;;;;;;;;5136592;27;20034;-69
2023/11/23 06:21:08;;;;;;;37.95;19.10;;;;;;;;;;5120227;27;20053;-69
2023/11/23 06:23:53;;;;;;;40.60;19.20;;;;;;;;;;5121813;27;20019;-74
2023/11/23 06:26:39;;;;;;;43.55;21.48;;;;;;;;;;5137027;27;20041;-74
2023/11/23 06:29:24;;;;;;;42.85;21.02;;;;;;;;;;5135883;27;20051;-73
2023/11/23 06:32:12;;;;;;;43.42;21.75;;;;;;;;;;5120824;27;20080;-73
2023/11/23 06:34:58;;;;;;;38.58;20.48;;;;;;;;;;5135769;27;20443;-73
2023/11/23 06:37:44;;;;;;;42.30;21.42;;;;;;;;;;5136444;27;20023;-72
2023/11/23 06:40:34;;;;;;;39.88;20.75;;;;;;;;;;5135732;27;20458;-73
2023/11/23 06:43:19;;;;;;;41.78;20.25;;;;;;;;;;5136150;27;20037;-75
2023/11/23 06:46:05;;;;;;;40.95;19.63;;;;;;;;;;5137399;27;20073;-75
2023/11/23 06:48:51;;;;;;;49.75;20.80;;;;;;;;;;5135960;27;20426;-76
2023/11/23 06:51:36;;;;;;;39.72;20.20;;;;;;;;;;5136209;27;20092;-75
2023/11/23 06:54:22;;;;;;;40.92;19.77;;;;;;;;;;5136044;27;20031;-83
2023/11/23 06:57:08;;;;;;;42.35;19.52;;;;;;;;;;5134581;27;20084;-73
2023/11/23 06:59:53;;;;;;;40.00;19.85;;;;;;;;;;5135223;27;20124;-73
2023/11/23 07:02:39;;;;;;;37.17;19.80;;;;;;;;;;5135711;27;20015;-73
2023/11/23 07:05:25;;;;;;;41.58;21.10;;;;;;;;;;5145933;27;20027;-73
2023/11/23 07:08:10;;;;;;;38.72;18.65;;;;;;;;;;5148869;27;20347;-71
2023/11/23 07:10:57;;;;;;;40.47;21.70;;;;;;;;;;5142465;27;20019;-72
2023/11/23 07:13:42;;;;;;;39.28;20.30;;;;;;;;;;5121524;27;20023;-72
2023/11/23 07:16:28;;;;;;;41.65;20.27;;;;;;;;;;5131920;27;20087;-71
2023/11/23 07:19:14;;;;;;;39.22;20.48;;;;;;;;;;5135328;27;20431;-72
2023/11/23 07:21:59;;;;;;;40.85;20.38;;;;;;;;;;5146243;27;20054;-72
2023/11/23 07:24:45;;;;;;;42.50;20.55;;;;;;;;;;5150311;28;20098;-72
2023/11/23 07:27:30;;;;;;;36.85;20.75;;;;;;;;;;5148727;28;20019;-73
2023/11/23 07:30:16;;;;;;;56.05;29.38;;;;;;;;;;5151297;28;20038;-72
2023/11/23 07:33:02;;;;;;;60.50;31.02;;;;;;;;;;5151503;28;20030;-71
2023/11/23 07:35:50;;;;;;;49.75;26.13;;;;;;;;;;5150638;28;20049;-71
2023/11/23 07:38:36;;;;;;;50.25;25.77;;;;;;;;;;5146920;28;20087;-72
2023/11/23 07:41:21;;;;;;;63.65;33.13;;;;;;;;;;5134223;28;20049;-71
2023/11/23 07:44:07;;;;;;;59.72;30.58;;;;;;;;;;5145753;28;20015;-71
2023/11/23 07:46:52;;;;;;;47.30;26.23;;;;;;;;;;5138193;28;20011;-72
2023/11/23 07:49:38;;;;;;;54.50;27.50;;;;;;;;;;5138216;27;20023;-73
2023/11/23 07:52:24;;;;;;;49.60;25.15;;;;;;;;;;5137953;27;20050;-72
2023/11/23 07:55:10;;;;;;;46.05;23.40;;;;;;;;;;5122549;28;20031;-73
2023/11/23 07:57:56;;;;;;;43.63;22.52;;;;;;;;;;5123079;28;20019;-73
2023/11/23 08:00:41;;;;;;;51.95;23.40;;;;;;;;;;5136488;28;20023;-71
2023/11/23 08:03:27;;;;;;;45.08;23.25;;;;;;;;;;5122640;28;20030;-72
2023/11/23 08:06:13;;;;;;;47.75;23.60;;;;;;;;;;5123536;28;20090;-73
2023/11/23 08:08:59;;;;;;;52.95;26.92;;;;;;;;;;5122935;28;20022;-73
2023/11/23 08:11:45;;;;;;;49.55;26.70;;;;;;;;;;5141911;27;20051;-72
2023/11/23 08:14:30;;;;;;;52.95;26.17;;;;;;;;;;5132867;27;20047;-73
2023/11/23 08:17:17;;;;;;;44.83;23.25;;;;;;;;;;5152739;27;20076;-70
2023/11/23 08:20:07;;;;;;;45.88;22.52;;;;;;;;;;5153977;27;20054;-72
2023/11/23 08:22:53;;;;;;;46.38;22.27;;;;;;;;;;5155216;27;20019;-71
2023/11/23 08:25:39;;;;;;;43.15;22.08;;;;;;;;;;5152704;27;20082;-71
2023/11/23 08:28:25;;;;;;;45.25;21.67;;;;;;;;;;5153073;27;20085;-72
2023/11/23 08:31:11;;;;;;;41.58;21.50;;;;;;;;;;5154037;27;20019;-71
2023/11/23 08:33:56;;;;;;;45.05;21.50;;;;;;;;;;5152604;27;20049;-73
2023/11/23 08:36:43;;;;;;;46.63;24.55;;;;;;;;;;5131276;27;20015;-72
2023/11/23 08:39:29;;;;;;;44.08;22.27;;;;;;;;;;5141795;27;20034;-72
2023/11/23 08:42:15;;;;;;;40.00;22.15;;;;;;;;;;5138889;27;20026;-72
2023/11/23 08:45:01;;;;;;;43.75;22.10;;;;;;;;;;5138485;27;20092;-72
2023/11/23 08:47:46;;;;;;;37.58;21.33;;;;;;;;;;5138977;27;20019;-72
2023/11/23 08:50:32;;;;;;;51.80;24.38;;;;;;;;;;5137786;27;20050;-71
2023/11/23 08:53:18;;;;;;;46.97;22.52;;;;;;;;;;5124531;27;20110;-73
2023/11/23 08:56:04;;;;;;;42.63;22.05;;;;;;;;;;5137355;27;20023;-72
2023/11/23 08:58:50;;;;;;;44.80;22.75;;;;;;;;;;5138082;27;20392;-72
2023/11/23 09:01:35;;;;;;;43.70;22.77;;;;;;;;;;5136547;27;20027;-70
2023/11/23 09:04:21;;;;;;;42.00;21.98;;;;;;;;;;5125355;27;20019;-72
2023/11/23 09:07:08;;;;;;;45.17;23.27;;;;;;;;;;5149413;27;20011;-72
2023/11/23 09:09:54;;;;;;;46.90;23.02;;;;;;;;;;5124489;27;20043;-71
2023/11/23 09:12:39;;;;;;;48.35;23.35;;;;;;;;;;5139122;27;20016;-71
2023/11/23 09:15:25;;;;;;;48.40;22.23;;;;;;;;;;5142385;27;20050;-73
2023/11/23 09:18:10;;;;;;;46.25;23.83;;;;;;;;;;5140783;27;20057;-72
2023/11/23 09:20:56;;;;;;;59.83;27.25;;;;;;;;;;5125019;27;20019;-72
2023/11/23 09:23:42;;;;;;;47.20;24.63;;;;;;;;;;5122572;27;20369;-71
2023/11/23 09:26:28;;;;;;;45.28;23.83;;;;;;;;;;5123455;27;20019;-72
2023/11/23 09:29:13;;;;;;;46.45;23.33;;;;;;;;;;5121946;27;20025;-72
2023/11/23 09:31:59;;;;;;;48.35;24.80;;;;;;;;;;5122331;27;20034;-71
2023/11/23 09:34:45;;;;;;;44.72;23.13;;;;;;;;;;5138323;27;20019;-72
2023/11/23 09:37:30;;;;;;;44.88;22.17;;;;;;;;;;5137159;27;20035;-74
2023/11/23 09:40:17;;;;;;;46.53;22.73;;;;;;;;;;5136371;27;20068;-71
2023/11/23 09:43:02;;;;;;;42.53;21.02;;;;;;;;;;5136778;27;20483;-71
2023/11/23 09:45:48;;;;;;;45.30;23.17;;;;;;;;;;5136300;27;20031;-72
2023/11/23 09:48:38;;;;;;;45.88;22.75;;;;;;;;;;5136834;27;20011;-71
2023/11/23 09:51:24;;;;;;;47.28;22.73;;;;;;;;;;5135651;27;20528;-71
2023/11/23 09:54:14;;;;;;;43.53;21.25;;;;;;;;;;5136888;27;20513;-71
2023/11/23 09:57:00;;;;;;;41.80;21.45;;;;;;;;;;5137168;27;20457;-72
2023/11/23 09:59:45;;;;;;;47.10;22.35;;;;;;;;;;5136800;27;20446;-72
2023/11/23 10:02:32;;;;;;;44.92;22.08;;;;;;;;;;5137427;27;20015;-73
2023/11/23 10:05:17;;;;;;;47.40;22.85;;;;;;;;;;5136474;27;20022;-72
2023/11/23 10:08:04;;;;;;;45.75;22.70;;;;;;;;;;5137076;27;20023;-72
2023/11/23 10:10:51;;;;;;;48.08;22.33;;;;;;;;;;5122655;27;20101;-72
2023/11/23 10:13:37;;;;;;;49.30;22.98;;;;;;;;;;5121435;27;20027;-72
2023/11/23 10:16:22;;;;;;;39.53;21.92;;;;;;;;;;5122769;27;20111;-71
2023/11/23 10:19:18;;;;;;;40.97;21.77;;;;;;;;;;5120954;27;20019;-71
2023/11/23 10:22:03;;;;;;;51.42;24.88;;;;;;;;;;5120707;27;20026;-70
2023/11/23 10:24:49;;;;;;;48.55;23.83;;;;;;;;;;5120562;27;20019;-70
2023/11/23 10:27:36;;;;;;;56.22;24.88;;;;;;;;;;5135329;27;20015;-77
2023/11/23 10:30:23;;;;;;;47.50;24.40;;;;;;;;;;5122359;27;20051;-74
2023/11/23 10:33:11;;;;;;;49.78;25.05;;;;;;;;;;5123166;27;20031;-73
2023/11/23 10:35:58;;;;;;;44.25;24.02;;;;;;;;;;5135066;27;20156;-75
2023/11/23 10:38:44;;;;;;;43.72;23.33;;;;;;;;;;5122307;27;20070;-75
2023/11/23 10:41:30;;;;;;;49.25;24.90;;;;;;;;;;5135866;27;20055;-71
2023/11/23 10:44:16;;;;;;;48.78;24.52;;;;;;;;;;5135955;27;20347;-71
2023/11/23 10:47:03;;;;;;;45.72;22.42;;;;;;;;;;5121858;27;20023;-70
2023/11/23 10:49:49;;;;;;;47.08;23.67;;;;;;;;;;5135101;27;20027;-70
2023/11/23 10:52:35;;;;;;;56.33;25.63;;;;;;;;;;5135853;27;20038;-69
2023/11/23 10:55:20;;;;;;;54.63;23.85;;;;;;;;;;5137398;27;20019;-71
2023/11/23 10:58:09;;;;;;;49.10;23.20;;;;;;;;;;5135997;27;20447;-70
2023/11/23 11:00:55;;;;;;;42.45;22.00;;;;;;;;;;5135371;27;20023;-71
2023/11/23 11:03:40;;;;;;;42.20;21.48;;;;;;;;;;5121755;27;20111;-70
2023/11/23 11:06:38;;;;;;;40.80;20.17;;;;;;;;;;5135202;27;20084;-72
2023/11/23 11:09:27;;;;;;;54.60;22.65;;;;;;;;;;5121489;27;20115;-70
2023/11/23 11:12:13;;;;;;;45.47;22.17;;;;;;;;;;5135307;27;20033;-70
2023/11/23 11:15:03;;;;;;;50.63;21.23;;;;;;;;;;5135302;27;20151;-71
2023/11/23 11:17:51;;;;;;;48.47;22.02;;;;;;;;;;5135050;27;20151;-71
2023/11/23 11:20:41;;;;;;;53.65;22.48;;;;;;;;;;5120677;27;20022;-71
2023/11/23 11:23:36;;;;;;;46.92;21.35;;;;;;;;;;5134985;28;20423;-70
2023/11/23 11:26:25;;;;;;;39.45;20.17;;;;;;;;;;5134758;28;20015;-70
2023/11/23 11:29:10;;;;;;;43.40;20.30;;;;;;;;;;5134887;28;20011;-76
2023/11/23 11:31:57;;;;;;;49.33;21.70;;;;;;;;;;5134961;28;20042;-76
2023/11/23 11:34:42;;;;;;;41.00;21.48;;;;;;;;;;5135359;28;20020;-76
2023/11/23 11:37:29;;;;;;;43.38;21.08;;;;;;;;;;5119762;28;20094;-73
2023/11/23 11:40:15;;;;;;;48.00;20.55;;;;;;;;;;5120571;28;20413;-74
2023/11/23 11:43:02;;;;;;;39.25;20.75;;;;;;;;;;5119896;28;20056;-75
2023/11/23 11:45:48;;;;;;;49.75;22.52;;;;;;;;;;5121598;27;20147;-75
2023/11/23 11:48:33;;;;;;;42.30;22.17;;;;;;;;;;5124115;27;20019;-74
2023/11/23 11:51:19;;;;;;;44.28;21.75;;;;;;;;;;5139266;27;20038;-74
2023/11/23 11:54:06;;;;;;;42.83;22.52;;;;;;;;;;5140378;27;20026;-74
2023/11/23 11:56:52;;;;;;;44.85;21.95;;;;;;;;;;5139123;27;20027;-76
2023/11/23 11:59:38;;;;;;;40.95;21.83;;;;;;;;;;5124251;27;20370;-74
2023/11/23 12:02:24;;;;;;;43.45;21.73;;;;;;;;;;5138891;27;20031;-74
2023/11/23 12:05:09;;;;;;;42.05;21.75;;;;;;;;;;5140203;27;20098;-75
2023/11/23 12:07:55;;;;;;;46.10;23.65;;;;;;;;;;5124191;27;20030;-74
2023/11/23 12:10:42;;;;;;;41.90;22.38;;;;;;;;;;5123243;27;20019;-74
2023/11/23 12:13:28;;;;;;;42.95;21.73;;;;;;;;;;5124013;27;20119;-74
2023/11/23 12:16:13;;;;;;;42.72;22.33;;;;;;;;;;5139597;27;20121;-74
2023/11/23 12:18:59;;;;;;;56.67;22.80;;;;;;;;;;5140186;27;20023;-73
2023/11/23 12:21:52;;;;;;;69.07;25.88;;;;;;;;;;5139274;27;20023;-76
2023/11/23 12:24:37;;;;;;;77.18;25.10;;;;;;;;;;5138572;27;20019;-75
2023/11/23 12:27:27;;;;;;;73.35;25.08;;;;;;;;;;5138435;27;20023;-75
2023/11/23 12:30:15;;;;;;;74.85;24.65;;;;;;;;;;5122799;27;20031;-74
2023/11/23 12:33:00;;;;;;;40.78;22.35;;;;;;;;;;5138380;27;20396;-74
2023/11/23 12:35:47;;;;;;;42.85;22.38;;;;;;;;;;5143953;27;20038;-73
2023/11/23 12:38:33;;;;;;;43.53;22.25;;;;;;;;;;5153532;27;20034;-74
2023/11/23 12:41:20;;;;;;;46.28;23.13;;;;;;;;;;5148315;27;20031;-71
2023/11/23 12:44:05;;;;;;;50.88;23.48;;;;;;;;;;5151776;27;20080;-72
2023/11/23 12:46:51;;;;;;;53.38;25.65;;;;;;;;;;5123570;27;20015;-69
2023/11/23 12:49:37;;;;;;;49.75;23.17;;;;;;;;;;5123362;27;20045;-70
2023/11/23 12:52:22;;;;;;;46.38;22.98;;;;;;;;;;5138448;27;20039;-69
2023/11/23 12:55:09;;;;;;;39.88;21.65;;;;;;;;;;5140608;27;20379;-70
2023/11/23 12:57:54;;;;;;;39.25;20.67;;;;;;;;;;5122148;27;20092;-70
2023/11/23 13:00:41;;;;;;;39.95;20.27;;;;;;;;;;5136935;27;20027;-69
2023/11/23 13:03:27;;;;;;;39.88;22.48;;;;;;;;;;5138147;27;20342;-69
2023/11/23 13:06:12;;;;;;;39.95;20.15;;;;;;;;;;5137299;27;20076;-71
2023/11/23 13:08:58;;;;;;;83.55;24.65;;;;;;;;;;5137818;27;20022;-70
2023/11/23 13:11:44;;;;;;;46.17;21.65;;;;;;;;;;5139074;27;20023;-68
2023/11/23 13:14:30;;;;;;;67.30;23.35;;;;;;;;;;5121727;27;20011;-69
2023/11/23 13:17:18;;;;;;;46.28;22.08;;;;;;;;;;5137244;27;20087;-69
2023/11/23 13:20:09;;;;;;;42.95;23.00;;;;;;;;;;5123345;27;20435;-69
2023/11/23 13:22:54;;;;;;;40.38;22.23;;;;;;;;;;5137686;27;20019;-70
2023/11/23 13:25:40;;;;;;;40.85;21.65;;;;;;;;;;5136976;27;20015;-70
2023/11/23 13:28:26;;;;;;;42.58;22.80;;;;;;;;;;5136786;27;20025;-70
2023/11/23 13:31:14;;;;;;;38.80;21.10;;;;;;;;;;5136925;27;20023;-71
2023/11/23 13:34:00;;;;;;;43.28;22.90;;;;;;;;;;5122858;27;20015;-69
2023/11/23 13:36:46;;;;;;;38.03;21.88;;;;;;;;;;5122777;27;20027;-70
2023/11/23 13:39:32;;;;;;;64.45;27.77;;;;;;;;;;5136364;27;20201;-69
2023/11/23 13:42:17;;;;;;;48.20;23.35;;;;;;;;;;5136472;27;20031;-69
2023/11/23 13:45:05;;;;;;;45.10;22.00;;;;;;;;;;5138297;27;20072;-70
2023/11/23 13:47:51;;;;;;;38.83;21.17;;;;;;;;;;5137161;27;20057;-70
2023/11/23 13:50:41;;;;;;;37.97;20.83;;;;;;;;;;5121138;27;20085;-70
2023/11/23 13:53:28;;;;;;;43.53;22.23;;;;;;;;;;5136586;27;20355;-70
2023/11/23 13:56:14;;;;;;;48.38;20.42;;;;;;;;;;5135822;27;20030;-70
2023/11/23 13:59:00;;;;;;;67.72;23.58;;;;;;;;;;5136615;27;20023;-70
2023/11/23 14:01:48;;;;;;;39.97;20.75;;;;;;;;;;5135761;27;20188;-72
2023/11/23 14:04:35;;;;;;;49.92;23.48;;;;;;;;;;5135800;27;20030;-71
2023/11/23 14:07:22;;;;;;;39.58;21.33;;;;;;;;;;5136324;27;20435;-71
2023/11/23 14:10:09;;;;;;;39.50;21.13;;;;;;;;;;5121830;27;20059;-72
2023/11/23 14:12:56;;;;;;;40.85;21.52;;;;;;;;;;5135883;27;20173;-71
2023/11/23 14:15:43;;;;;;;37.92;20.30;;;;;;;;;;5136184;27;20076;-72
2023/11/23 14:18:29;;;;;;;36.30;20.55;;;;;;;;;;5135393;27;20075;-72
2023/11/23 14:21:15;;;;;;;43.08;22.90;;;;;;;;;;5122017;27;20042;-72
2023/11/23 14:24:00;;;;;;;41.33;22.23;;;;;;;;;;5136670;27;20093;-71
2023/11/23 14:26:49;;;;;;;40.88;21.75;;;;;;;;;;5135540;27;20020;-71
2023/11/23 14:29:34;;;;;;;47.90;22.73;;;;;;;;;;5135991;27;20034;-71
2023/11/23 14:32:20;;;;;;;42.83;21.70;;;;;;;;;;5137481;27;20015;-72
2023/11/23 14:35:06;;;;;;;38.17;20.02;;;;;;;;;;5135106;27;20076;-72
2023/11/23 14:37:52;;;;;;;42.72;21.17;;;;;;;;;;5121147;27;20035;-73
2023/11/23 14:40:38;;;;;;;38.05;20.17;;;;;;;;;;5122117;27;20114;-72
2023/11/23 14:43:27;;;;;;;36.97;20.38;;;;;;;;;;5135682;27;20015;-72
2023/11/23 14:46:12;;;;;;;47.30;21.40;;;;;;;;;;5135533;27;20015;-71
2023/11/23 14:48:58;;;;;;;37.08;20.23;;;;;;;;;;5135423;27;20347;-73
2023/11/23 14:51:45;;;;;;;37.38;20.48;;;;;;;;;;5136556;27;20078;-72
2023/11/23 14:54:30;;;;;;;40.25;20.05;;;;;;;;;;5121785;27;20454;-73
2023/11/23 14:57:16;;;;;;;42.88;21.52;;;;;;;;;;5135073;27;20035;-72
2023/11/23 15:00:02;;;;;;;42.63;20.55;;;;;;;;;;5134942;27;20370;-71
2023/11/23 15:02:49;;;;;;;41.92;20.77;;;;;;;;;;5134869;27;20097;-71
2023/11/23 15:05:35;;;;;;;38.05;21.13;;;;;;;;;;5135748;27;20100;-73
2023/11/23 15:08:21;;;;;;;39.28;20.20;;;;;;;;;;5135904;27;20042;-71
2023/11/23 15:11:07;;;;;;;38.92;19.75;;;;;;;;;;5135471;27;20034;-71
2023/11/23 15:13:52;;;;;;;43.42;20.92;;;;;;;;;;5134667;27;20447;-71
2023/11/23 15:16:39;;;;;;;41.17;21.05;;;;;;;;;;5121150;27;20114;-72
2023/11/23 15:19:24;;;;;;;45.08;21.83;;;;;;;;;;5120624;27;20034;-71
2023/11/23 15:22:11;;;;;;;43.95;21.63;;;;;;;;;;5135821;27;20030;-71
2023/11/23 15:24:57;;;;;;;39.53;20.48;;;;;;;;;;5121409;28;20019;-72
2023/11/23 15:27:45;;;;;;;39.25;20.08;;;;;;;;;;5134315;28;20133;-72
2023/11/23 15:30:31;;;;;;;42.80;21.80;;;;;;;;;;5134901;28;20016;-72
2023/11/23 15:33:17;;;;;;;38.67;19.48;;;;;;;;;;5120038;28;20043;-72
2023/11/23 15:36:05;;;;;;;38.33;21.50;;;;;;;;;;5135407;28;20038;-72
2023/11/23 15:38:51;;;;;;;41.92;21.90;;;;;;;;;;5134807;28;20023;-71
2023/11/23 15:41:36;;;;;;;37.45;20.90;;;;;;;;;;5122822;27;20030;-71
2023/11/23 15:44:22;;;;;;;43.22;22.27;;;;;;;;;;5135346;28;20015;-71
2023/11/23 15:47:10;;;;;;;46.13;23.63;;;;;;;;;;5134606;28;20043;-71
2023/11/23 15:49:56;;;;;;;44.13;22.45;;;;;;;;;;5132972;28;20462;-71
2023/11/23 15:52:42;;;;;;;45.10;22.27;;;;;;;;;;5133464;28;20035;-71
2023/11/23 15:55:29;;;;;;;43.10;22.15;;;;;;;;;;5133470;28;20037;-70
2023/11/23 15:58:15;;;;;;;48.28;23.08;;;;;;;;;;5126734;28;20050;-71
2023/11/23 16:01:07;;;;;;;47.25;22.95;;;;;;;;;;5113558;28;20424;-71
2023/11/23 16:03:55;;;;;;;46.80;23.92;;;;;;;;;;5100086;28;20112;-69
2023/11/23 16:06:41;;;;;;;45.40;23.92;;;;;;;;;;5113752;28;20020;-71